createdAt,value
2022-12-24T00:00:05.896Z,100383.07
2022-12-24T00:03:11.545Z,100386.47
2022-12-24T00:06:24.206Z,100387.67
2022-12-24T00:09:30.867Z,100385.45
2022-12-24T00:12:38.638Z,100388.66
2022-12-24T00:15:44.070Z,100388.16
2022-12-24T00:18:50.176Z,100379.25
2022-12-24T00:21:56.275Z,100374.76
2022-12-24T00:25:02.922Z,100380.69
2022-12-24T00:28:09.238Z,100374.19
2022-12-24T00:31:14.026Z,100378.56
2022-12-24T00:34:21.075Z,100373.63
2022-12-24T00:37:26.653Z,100370.71
2022-12-24T00:40:33.222Z,100365.92
2022-12-24T00:43:38.168Z,100369.84
2022-12-24T00:46:44.328Z,100373.58
2022-12-24T00:49:49.507Z,100365.01
2022-12-24T00:52:56.211Z,100370.59
2022-12-24T00:56:01.170Z,100368.74
2022-12-24T00:59:06.234Z,100370.30
2022-12-24T01:02:12.315Z,100375.28
2022-12-24T01:05:17.930Z,100367.55
2022-12-24T01:08:24.851Z,100366.45
2022-12-24T01:11:31.725Z,100365.70
2022-12-24T01:14:37.864Z,100366.12
2022-12-24T01:17:46.064Z,100369.70
2022-12-24T01:20:51.138Z,100369.48
2022-12-24T01:23:57.354Z,100365.21
2022-12-24T01:27:02.727Z,100363.36
2022-12-24T01:30:08.138Z,100363.39
2022-12-24T01:33:14.266Z,100364.98
2022-12-24T01:36:20.989Z,100371.32
2022-12-24T01:39:26.061Z,100370.72
2022-12-24T01:42:55.784Z,100362.45
2022-12-24T01:46:08.472Z,100363.88
2022-12-24T01:49:17.598Z,100357.94
2022-12-24T01:52:29.957Z,100358.63
2022-12-24T01:55:36.455Z,100354.92
2022-12-24T01:58:44.743Z,100349.22
2022-12-24T02:01:52.014Z,100352.74
2022-12-24T02:05:12.156Z,100353.39
2022-12-24T02:08:18.200Z,100352.33
2022-12-24T02:11:34.296Z,100358.14
2022-12-24T02:14:39.631Z,100357.84
2022-12-24T02:17:55.691Z,100359.69
2022-12-24T02:21:30.858Z,100354.75
2022-12-24T02:24:41.213Z,100353.76
2022-12-24T02:28:02.849Z,100357.01
2022-12-24T02:31:18.310Z,100353.80
2022-12-24T02:34:35.866Z,100358.93
2022-12-24T02:37:46.306Z,100359.64
2022-12-24T02:40:56.713Z,100358.31
2022-12-24T02:44:02.114Z,100359.19
2022-12-24T02:47:08.353Z,100358.13
2022-12-24T02:50:16.248Z,100346.84
2022-12-24T02:53:23.647Z,100353.80
2022-12-24T02:57:06.718Z,100346.28
2022-12-24T03:00:23.362Z,100353.76
2022-12-24T03:03:52.698Z,100357.12
2022-12-24T03:07:12.350Z,100358.83
2022-12-24T03:10:57.843Z,100362.56
2022-12-24T03:14:04.582Z,100361.35
2022-12-24T03:17:11.645Z,100370.38
2022-12-24T03:20:17.468Z,100372.80
2022-12-24T03:23:22.625Z,100370.61
2022-12-24T03:26:29.247Z,100366.44
2022-12-24T03:29:34.447Z,100369.20
2022-12-24T03:32:46.457Z,100362.13
2022-12-24T03:35:52.224Z,100360.45
2022-12-24T03:38:58.172Z,100353.41
2022-12-24T03:42:04.420Z,100349.06
2022-12-24T03:45:09.303Z,100355.80
2022-12-24T03:48:17.740Z,100357.53
2022-12-24T03:51:32.049Z,100353.69
2022-12-24T03:54:37.196Z,100359.58
2022-12-24T03:57:43.271Z,100351.39
2022-12-24T04:00:49.467Z,100361.70
2022-12-24T04:03:55.908Z,100362.49
2022-12-24T04:07:02.211Z,100357.36
2022-12-24T04:10:08.629Z,100364.64
2022-12-24T04:13:13.940Z,100358.38
2022-12-24T04:16:23.194Z,100356.56
2022-12-24T04:19:30.336Z,100354.15
2022-12-24T04:22:36.589Z,100350.14
2022-12-24T04:25:43.855Z,100351.20
2022-12-24T04:28:48.892Z,100351.84
2022-12-24T04:31:54.908Z,100355.88
2022-12-24T04:35:00.608Z,100346.67
2022-12-24T04:38:06.595Z,100344.41
2022-12-24T04:41:25.277Z,100346.55
2022-12-24T04:44:30.645Z,100352.03
2022-12-24T04:47:36.855Z,100352.55
2022-12-24T04:50:42.024Z,100352.75
2022-12-24T04:53:47.535Z,100349.16
2022-12-24T04:56:53.278Z,100352.41
2022-12-24T04:59:59.166Z,100352.97
2022-12-24T05:03:05.008Z,100350.90
2022-12-24T05:06:19.563Z,100349.54
2022-12-24T05:09:26.866Z,100353.95
2022-12-24T05:12:33.536Z,100353.24
2022-12-24T05:15:39.107Z,100359.34
2022-12-24T05:18:44.580Z,100362.22
2022-12-24T05:21:50.894Z,100362.67
2022-12-24T05:25:14.673Z,100363.16
2022-12-24T05:28:20.233Z,100370.00
2022-12-24T05:31:26.910Z,100364.11
2022-12-24T05:34:32.962Z,100349.91
2022-12-24T05:37:39.481Z,100352.21
2022-12-24T05:40:48.497Z,100347.23
2022-12-24T05:43:54.954Z,100353.97
2022-12-24T05:47:03.365Z,100355.67
2022-12-24T05:50:09.867Z,100356.44
2022-12-24T05:53:18.162Z,100357.01
2022-12-24T05:56:32.495Z,100356.14
2022-12-24T05:59:38.665Z,100361.01
2022-12-24T06:02:44.763Z,100362.41
2022-12-24T06:05:50.896Z,100366.75
2022-12-24T06:08:57.485Z,100365.59
2022-12-24T06:12:02.897Z,100366.95
2022-12-24T06:15:08.538Z,100370.08
2022-12-24T06:18:14.986Z,100368.49
2022-12-24T06:21:21.747Z,100369.78
2022-12-24T06:24:27.277Z,100369.93
2022-12-24T06:27:34.154Z,100376.23
2022-12-24T06:30:40.007Z,100373.86
2022-12-24T06:33:46.385Z,100377.25
2022-12-24T06:36:52.153Z,100374.16
2022-12-24T06:39:57.975Z,100381.10
2022-12-24T06:43:02.975Z,100373.40
2022-12-24T06:46:08.572Z,100380.34
2022-12-24T06:49:15.016Z,100376.11
2022-12-24T06:52:20.303Z,100381.10
2022-12-24T06:55:25.787Z,100377.67
2022-12-24T06:58:31.885Z,100383.82
2022-12-24T07:01:37.862Z,100385.25
2022-12-24T07:04:42.926Z,100386.58
2022-12-24T07:07:47.629Z,100392.31
2022-12-24T07:10:54.520Z,100399.94
2022-12-24T07:14:01.887Z,100405.83
2022-12-24T07:17:07.489Z,100407.64
2022-12-24T07:20:14.614Z,100406.03
2022-12-24T07:23:20.119Z,100411.52
2022-12-24T07:26:25.647Z,100409.35
2022-12-24T07:29:31.396Z,100407.34
2022-12-24T07:32:37.987Z,100406.63
2022-12-24T07:35:44.819Z,100410.16
2022-12-24T07:38:50.360Z,100405.55
2022-12-24T07:41:57.252Z,100407.17
2022-12-24T07:45:03.714Z,100405.63
2022-12-24T07:48:10.102Z,100405.14
2022-12-24T07:51:15.298Z,100408.42
2022-12-24T07:54:21.347Z,100401.47
2022-12-24T07:57:26.826Z,100400.78
2022-12-24T08:00:33.416Z,100395.50
2022-12-24T08:03:40.513Z,100396.36
2022-12-24T08:06:46.735Z,100393.30
2022-12-24T08:09:57.061Z,100390.42
2022-12-24T08:13:03.362Z,100388.69
2022-12-24T08:16:08.875Z,100391.11
2022-12-24T08:19:17.426Z,100391.98
2022-12-24T08:22:23.414Z,100390.64
2022-12-24T08:25:28.709Z,100394.45
2022-12-24T08:28:35.108Z,100382.80
2022-12-24T08:31:43.528Z,100384.25
2022-12-24T08:34:50.142Z,100386.19
2022-12-24T08:37:58.066Z,100379.55
2022-12-24T08:41:04.012Z,100373.23
2022-12-24T08:44:10.934Z,100371.13
2022-12-24T08:47:20.011Z,100373.58
2022-12-24T08:50:26.208Z,100363.31
2022-12-24T08:53:34.042Z,100359.51
2022-12-24T08:56:42.811Z,100362.05
2022-12-24T08:59:47.665Z,100363.09
2022-12-24T09:02:56.253Z,100357.88
2022-12-24T09:06:03.110Z,100350.76
2022-12-24T09:09:10.568Z,100347.51
2022-12-24T09:12:20.070Z,100337.34
2022-12-24T09:15:26.336Z,100348.06
2022-12-24T09:18:34.229Z,100350.70
2022-12-24T09:21:39.786Z,100366.53
2022-12-24T09:24:47.026Z,100351.96
2022-12-24T09:27:54.102Z,100343.98
2022-12-24T09:31:00.175Z,100345.50
2022-12-24T09:34:06.068Z,100342.22
2022-12-24T09:37:13.366Z,100341.23
2022-12-24T09:40:21.183Z,100338.20
2022-12-24T09:43:38.776Z,100335.09
2022-12-24T09:46:50.533Z,100326.70
2022-12-24T09:49:59.463Z,100337.03
2022-12-24T09:53:08.297Z,100329.27
2022-12-24T09:56:15.776Z,100328.14
2022-12-24T09:59:34.579Z,100321.81
2022-12-24T10:02:42.886Z,100315.32
2022-12-24T10:06:04.118Z,100314.50
2022-12-24T10:09:26.937Z,100313.97
2022-12-24T10:12:50.482Z,100314.91
2022-12-24T10:16:21.170Z,100309.51
2022-12-24T10:19:40.908Z,100301.69
2022-12-24T10:23:17.536Z,100299.27
2022-12-24T10:26:42.794Z,100302.11
2022-12-24T10:29:56.575Z,100315.45
2022-12-24T10:33:07.509Z,100319.44
2022-12-24T10:36:13.577Z,100317.27
2022-12-24T10:39:21.093Z,100319.34
2022-12-24T10:42:26.503Z,100313.58
2022-12-24T10:45:36.814Z,100319.95
2022-12-24T10:48:52.658Z,100317.60
2022-12-24T10:52:11.858Z,100311.28
2022-12-24T10:55:28.271Z,100319.79
2022-12-24T10:58:35.390Z,100318.77
2022-12-24T11:02:02.360Z,100322.90
2022-12-24T11:05:09.401Z,100319.56
2022-12-24T11:08:32.233Z,100325.72
2022-12-24T11:11:38.301Z,100321.63
2022-12-24T11:14:49.909Z,100321.30
2022-12-24T11:17:56.136Z,100318.61
2022-12-24T11:21:07.635Z,100325.44
2022-12-24T11:24:29.735Z,100315.72
2022-12-24T11:27:46.905Z,100323.08
2022-12-24T11:30:52.855Z,100325.14
2022-12-24T11:34:07.049Z,100324.48
2022-12-24T11:37:39.195Z,100329.56
2022-12-24T11:40:52.499Z,100321.87
2022-12-24T11:44:01.260Z,100328.69
2022-12-24T11:47:07.377Z,100332.53
2022-12-24T11:50:18.673Z,100336.08
2022-12-24T11:53:34.585Z,100341.31
2022-12-24T11:56:53.163Z,100344.00
2022-12-24T12:00:03.587Z,100331.23
2022-12-24T12:03:11.143Z,100332.10
2022-12-24T12:06:17.904Z,100337.18
2022-12-24T12:09:29.885Z,100333.08
2022-12-24T12:12:42.432Z,100342.95
2022-12-24T12:16:07.442Z,100340.41
2022-12-24T12:19:20.336Z,100345.03
2022-12-24T12:22:33.703Z,100350.16
2022-12-24T12:25:52.178Z,100350.65
2022-12-24T12:29:15.163Z,100361.55
2022-12-24T12:32:23.692Z,100363.45
2022-12-24T12:35:47.994Z,100363.28
2022-12-24T12:38:56.183Z,100358.66
2022-12-24T12:42:44.891Z,100361.92
2022-12-24T12:46:10.236Z,100355.92
2022-12-24T12:49:41.576Z,100363.95
2022-12-24T12:53:29.007Z,100366.83
2022-12-24T12:56:47.932Z,100377.73
2022-12-24T13:00:06.399Z,100364.11
2022-12-24T13:03:29.102Z,100379.80
2022-12-24T13:06:54.592Z,100381.16
2022-12-24T13:10:13.461Z,100381.82
2022-12-24T13:13:50.319Z,100385.37
2022-12-24T13:17:34.238Z,100387.75
2022-12-24T13:20:46.279Z,100395.22
2022-12-24T13:23:51.770Z,100388.08
2022-12-24T13:26:58.130Z,100388.91
2022-12-24T13:30:21.506Z,100390.26
2022-12-24T13:33:30.701Z,100386.17
2022-12-24T13:36:36.846Z,100388.19
2022-12-24T13:39:42.424Z,100392.10
2022-12-24T13:43:19.057Z,100398.52
2022-12-24T13:46:23.969Z,100400.16
2022-12-24T13:49:57.120Z,100394.00
2022-12-24T13:53:08.587Z,100393.32
2022-12-24T13:56:29.176Z,100400.79
2022-12-24T13:59:51.511Z,100399.92
2022-12-24T14:03:20.772Z,100402.86
2022-12-24T14:06:47.321Z,100406.41
2022-12-24T14:09:53.743Z,100407.94
2022-12-24T14:13:04.863Z,100411.53
2022-12-24T14:16:16.668Z,100394.69
2022-12-24T14:19:35.368Z,100398.23
2022-12-24T14:22:59.425Z,100390.55
2022-12-24T14:26:05.923Z,100405.98
2022-12-24T14:29:24.593Z,100408.09
2022-12-24T14:32:30.907Z,100409.92
2022-12-24T14:35:39.177Z,100411.66
2022-12-24T14:38:44.978Z,100416.08
2022-12-24T14:42:13.999Z,100413.52
2022-12-24T14:45:49.982Z,100425.80
2022-12-24T14:49:13.445Z,100430.75
2022-12-24T14:53:04.794Z,100431.55
2022-12-24T14:56:00.605Z,100431.38
2022-12-24T14:59:10.032Z,100435.80
2022-12-24T15:02:38.030Z,100441.89
2022-12-24T15:05:44.647Z,100439.05
2022-12-24T15:09:02.685Z,100440.59
2022-12-24T15:12:12.343Z,100443.87
2022-12-24T15:15:16.990Z,100449.19
2022-12-24T15:18:24.136Z,100439.34
2022-12-24T15:21:37.312Z,100443.09
2022-12-24T15:24:49.228Z,100438.51
2022-12-24T15:27:56.236Z,100435.94
2022-12-24T15:31:03.752Z,100436.04
2022-12-24T15:34:11.349Z,100436.17
2022-12-24T15:37:27.121Z,100435.80
2022-12-24T15:40:36.733Z,100430.02
2022-12-24T15:43:42.615Z,100432.73
2022-12-24T15:46:48.907Z,100432.73
2022-12-24T15:49:58.647Z,100436.17
2022-12-24T15:53:19.310Z,100452.05
2022-12-24T15:56:27.342Z,100449.01
2022-12-24T15:59:37.765Z,100443.90
2022-12-24T16:03:00.024Z,100447.48
2022-12-24T16:06:25.241Z,100444.95
2022-12-24T16:09:56.052Z,100438.51
2022-12-24T16:13:00.909Z,100441.41
2022-12-24T16:16:10.176Z,100438.75
2022-12-24T16:19:17.022Z,100441.47
2022-12-24T16:22:42.299Z,100443.48
2022-12-24T16:25:48.680Z,100442.94
2022-12-24T16:28:54.729Z,100439.50
2022-12-24T16:32:06.227Z,100443.06
2022-12-24T16:35:11.010Z,100440.44
2022-12-24T16:38:16.836Z,100441.89
2022-12-24T16:41:22.678Z,100444.59
2022-12-24T16:44:29.321Z,100452.85
2022-12-24T16:47:43.315Z,100461.80
2022-12-24T16:50:48.256Z,100459.53
2022-12-24T16:53:54.949Z,100458.80
2022-12-24T16:57:01.753Z,100456.69
2022-12-24T17:00:09.768Z,100455.06
2022-12-24T17:03:14.476Z,100458.18
2022-12-24T17:06:21.978Z,100457.58
2022-12-24T17:09:28.605Z,100456.30
2022-12-24T17:12:34.646Z,100461.21
2022-12-24T17:15:40.554Z,100464.13
2022-12-24T17:18:46.190Z,100466.20
2022-12-24T17:21:52.956Z,100470.16
2022-12-24T17:24:58.728Z,100470.73
2022-12-24T17:28:05.621Z,100472.28
2022-12-24T17:31:10.799Z,100476.02
2022-12-24T17:34:16.411Z,100475.56
2022-12-24T17:37:24.249Z,100479.80
2022-12-24T17:40:31.632Z,100471.94
2022-12-24T17:43:37.382Z,100480.21
2022-12-24T17:46:43.550Z,100475.72
2022-12-24T17:49:48.732Z,100479.23
2022-12-24T17:52:55.910Z,100469.67
2022-12-24T17:56:00.873Z,100476.47
2022-12-24T17:59:07.230Z,100476.97
2022-12-24T18:02:12.365Z,100475.80
2022-12-24T18:05:19.082Z,100480.10
2022-12-24T18:08:24.519Z,100486.79
2022-12-24T18:11:39.959Z,100489.92
2022-12-24T18:14:48.040Z,100488.27
2022-12-24T18:17:53.509Z,100490.83
2022-12-24T18:21:00.914Z,100497.86
2022-12-24T18:24:05.790Z,100494.61
2022-12-24T18:27:13.163Z,100499.71
2022-12-24T18:30:27.626Z,100501.37
2022-12-24T18:33:29.796Z,100502.81
2022-12-24T18:36:35.820Z,100498.62
2022-12-24T18:39:43.405Z,100505.37
2022-12-24T18:42:50.676Z,100503.00
2022-12-24T18:45:58.591Z,100507.30
2022-12-24T18:49:06.387Z,100507.50
2022-12-24T18:52:16.574Z,100509.58
2022-12-24T18:55:21.592Z,100506.75
2022-12-24T18:58:27.678Z,100512.27
2022-12-24T19:01:37.779Z,100511.46
2022-12-24T19:04:45.244Z,100504.36
2022-12-24T19:07:52.076Z,100507.49
2022-12-24T19:10:59.124Z,100501.44
2022-12-24T19:14:08.922Z,100506.09
2022-12-24T19:17:14.902Z,100508.35
2022-12-24T19:20:21.005Z,100513.19
2022-12-24T19:23:29.965Z,100507.73
2022-12-24T19:26:35.421Z,100507.28
2022-12-24T19:29:42.767Z,100514.12
2022-12-24T19:32:48.551Z,100531.02
2022-12-24T19:35:53.904Z,100533.09
2022-12-24T19:39:00.922Z,100533.09
2022-12-24T19:42:07.038Z,100535.81
2022-12-24T19:45:12.111Z,100539.90
2022-12-24T19:48:19.306Z,100539.75
2022-12-24T19:51:27.549Z,100549.25
2022-12-24T19:54:34.203Z,100546.30
2022-12-24T19:57:39.459Z,100550.20
2022-12-24T20:00:45.566Z,100546.04
2022-12-24T20:03:52.456Z,100555.95
2022-12-24T20:07:00.698Z,100552.20
2022-12-24T20:10:06.950Z,100555.11
2022-12-24T20:13:14.206Z,100551.59
2022-12-24T20:16:22.868Z,100558.77
2022-12-24T20:19:29.252Z,100552.45
2022-12-24T20:22:36.295Z,100557.91
2022-12-24T20:25:42.044Z,100558.93
2022-12-24T20:28:51.215Z,100562.48
2022-12-24T20:31:58.589Z,100563.35
2022-12-24T20:35:06.927Z,100563.02
2022-12-24T20:38:13.295Z,100572.17
2022-12-24T20:41:20.367Z,100565.36
2022-12-24T20:44:26.978Z,100565.73
2022-12-24T20:47:33.208Z,100569.94
2022-12-24T20:50:39.407Z,100571.83
2022-12-24T20:53:47.599Z,100574.55
2022-12-24T20:56:57.907Z,100573.80
2022-12-24T21:00:06.040Z,100566.05
2022-12-24T21:03:12.467Z,100567.29
2022-12-24T21:06:20.411Z,100568.28
2022-12-24T21:09:27.726Z,100573.88
2022-12-24T21:12:51.748Z,100582.04
2022-12-24T21:15:59.445Z,100587.34
2022-12-24T21:19:04.465Z,100590.55
2022-12-24T21:22:09.671Z,100587.94
2022-12-24T21:25:16.209Z,100592.32
2022-12-24T21:28:22.354Z,100588.73
2022-12-24T21:31:29.615Z,100592.81
2022-12-24T21:34:38.187Z,100592.09
2022-12-24T21:37:44.695Z,100595.20
2022-12-24T21:40:50.620Z,100598.91
2022-12-24T21:43:58.601Z,100601.47
2022-12-24T21:47:05.167Z,100603.52
2022-12-24T21:50:32.261Z,100603.44
2022-12-24T21:53:56.472Z,100603.09
2022-12-24T21:57:20.400Z,100602.38
2022-12-24T22:00:31.655Z,100605.25
2022-12-24T22:03:37.960Z,100597.65
2022-12-24T22:07:01.957Z,100594.28
2022-12-24T22:10:20.902Z,100595.65
2022-12-24T22:13:16.288Z,100606.53
2022-12-24T22:16:22.413Z,100603.66
2022-12-24T22:19:28.444Z,100607.94
2022-12-24T22:22:34.971Z,100605.94
2022-12-24T22:25:40.049Z,100599.84
2022-12-24T22:28:46.566Z,100600.19
2022-12-24T22:31:54.238Z,100604.13
2022-12-24T22:35:00.716Z,100611.08
2022-12-24T22:38:06.030Z,100612.59
2022-12-24T22:41:11.867Z,100613.45
2022-12-24T22:44:17.229Z,100617.58
2022-12-24T22:47:23.540Z,100617.58
2022-12-24T22:50:30.318Z,100619.66
2022-12-24T22:53:36.143Z,100618.30
2022-12-24T22:56:42.565Z,100622.73
2022-12-24T22:59:48.216Z,100622.73
2022-12-24T23:02:54.852Z,100636.56
2022-12-24T23:06:00.820Z,100629.91
2022-12-24T23:09:07.336Z,100637.93
2022-12-24T23:12:13.825Z,100638.42
2022-12-24T23:15:21.074Z,100633.84
2022-12-24T23:18:26.926Z,100633.31
2022-12-24T23:21:27.253Z,100634.68
2022-12-24T23:24:33.119Z,100632.83
2022-12-24T23:27:39.112Z,100631.42
2022-12-24T23:30:45.066Z,100624.78
2022-12-24T23:33:51.052Z,100632.95
2022-12-24T23:36:57.283Z,100638.13
2022-12-24T23:40:03.955Z,100640.18
2022-12-24T23:43:10.222Z,100639.39
2022-12-24T23:46:17.736Z,100637.01
2022-12-24T23:49:28.390Z,100645.89
2022-12-24T23:52:34.331Z,100644.05
2022-12-24T23:55:41.915Z,100649.83
2022-12-24T23:58:47.182Z,100645.25
